createdAt,value
2017-11-28T00:02:27.486Z,78.70
2017-11-28T00:05:00.536Z,78.40
2017-11-28T00:07:33.018Z,78.80
2017-11-28T00:10:06.285Z,79.20
2017-11-28T00:12:39.189Z,78.90
2017-11-28T00:15:11.785Z,78.10
2017-11-28T00:17:44.548Z,78.30
2017-11-28T00:20:17.893Z,79.00
2017-11-28T00:22:51.338Z,79.30
2017-11-28T00:25:24.326Z,78.70
2017-11-28T00:27:56.955Z,78.80
2017-11-28T00:30:30.294Z,78.00
2017-11-28T00:33:03.662Z,79.30
2017-11-28T00:35:38.144Z,78.90
2017-11-28T00:38:14.762Z,78.80
2017-11-28T00:40:48.151Z,79.20
2017-11-28T00:43:21.441Z,78.40
2017-11-28T00:45:53.941Z,78.40
2017-11-28T00:48:27.304Z,79.10
2017-11-28T00:50:59.669Z,78.90
2017-11-28T00:53:32.126Z,79.60
2017-11-28T00:56:06.308Z,80.60
2017-11-28T00:58:39.100Z,80.10
2017-11-28T01:01:12.425Z,80.70
2017-11-28T01:03:45.796Z,80.40
2017-11-28T01:06:19.189Z,81.70
2017-11-28T01:08:51.756Z,81.90
2017-11-28T01:11:24.875Z,82.30
2017-11-28T01:13:57.582Z,82.10
2017-11-28T01:16:30.965Z,82.70
2017-11-28T01:19:04.272Z,82.70
2017-11-28T01:21:37.098Z,83.20
2017-11-28T01:24:09.482Z,83.10
2017-11-28T01:26:42.755Z,83.60
2017-11-28T01:29:15.740Z,82.90
2017-11-28T01:31:48.230Z,83.00
2017-11-28T01:34:21.361Z,83.40
2017-11-28T01:36:53.982Z,83.80
2017-11-28T01:39:26.595Z,83.00
2017-11-28T01:41:59.101Z,83.60
2017-11-28T01:44:32.379Z,83.30
2017-11-28T01:47:04.974Z,83.50
2017-11-28T01:49:38.184Z,84.20
2017-11-28T01:52:11.688Z,83.80
2017-11-28T01:54:44.371Z,83.20
2017-11-28T01:57:17.542Z,83.60
2017-11-28T01:59:50.994Z,83.30
2017-11-28T02:02:24.487Z,83.70
2017-11-28T02:04:57.161Z,83.10
2017-11-28T02:07:30.412Z,84.00
2017-11-28T02:10:03.839Z,84.40
2017-11-28T02:12:37.214Z,83.70
2017-11-28T02:15:09.953Z,83.40
2017-11-28T02:17:42.429Z,83.60
2017-11-28T02:20:16.593Z,84.10
2017-11-28T02:22:49.206Z,83.70
2017-11-28T02:25:21.617Z,84.10
2017-11-28T02:27:54.074Z,83.60
2017-11-28T02:30:28.105Z,84.60
2017-11-28T02:33:00.902Z,84.20
2017-11-28T02:35:34.921Z,84.70
2017-11-28T02:38:07.789Z,83.90
2017-11-28T02:40:53.254Z,84.10
2017-11-28T02:43:26.610Z,85.00
2017-11-28T02:45:59.069Z,84.50
2017-11-28T02:48:33.261Z,84.70
2017-11-28T02:51:09.955Z,83.60
2017-11-28T02:53:43.633Z,83.90
2017-11-28T02:56:17.070Z,85.50
2017-11-28T02:58:52.207Z,85.50
2017-11-28T03:04:28.787Z,85.90
2017-11-28T03:07:04.073Z,85.20
2017-11-28T03:09:49.425Z,85.60
2017-11-28T03:12:25.835Z,85.80
2017-11-28T03:15:06.450Z,86.40
2017-11-28T03:17:39.688Z,86.00
2017-11-28T03:20:19.326Z,86.10
2017-11-28T03:22:52.120Z,87.00
2017-11-28T03:25:28.480Z,86.80
2017-11-28T03:28:01.211Z,85.80
2017-11-28T03:30:34.438Z,86.50
2017-11-28T03:33:08.300Z,87.80
2017-11-28T03:35:41.417Z,86.90
2017-11-28T03:38:14.809Z,88.10
2017-11-28T03:40:47.388Z,88.00
2017-11-28T03:43:20.808Z,87.10
2017-11-28T03:45:56.139Z,87.80
2017-11-28T03:48:30.834Z,87.60
2017-11-28T03:51:03.433Z,87.30
2017-11-28T03:53:36.358Z,87.90
2017-11-28T03:56:08.826Z,87.80
2017-11-28T03:58:42.055Z,88.60
2017-11-28T04:01:14.878Z,87.10
2017-11-28T04:03:47.582Z,87.90
2017-11-28T04:06:21.725Z,89.10
2017-11-28T04:08:55.797Z,88.80
2017-11-28T04:11:28.928Z,88.50
2017-11-28T04:14:01.593Z,88.40
2017-11-28T04:16:35.248Z,88.90
2017-11-28T04:19:07.936Z,88.80
2017-11-28T04:21:41.338Z,88.60
2017-11-28T04:24:15.501Z,87.70
2017-11-28T04:26:48.603Z,88.10
2017-11-28T04:29:22.093Z,88.90
2017-11-28T04:31:54.936Z,88.70
2017-11-28T04:34:28.261Z,88.80
2017-11-28T04:37:01.039Z,88.40
2017-11-28T04:39:33.814Z,89.00
2017-11-28T04:42:06.341Z,88.90
2017-11-28T04:44:39.297Z,88.30
2017-11-28T04:47:12.097Z,88.50
2017-11-28T04:49:46.165Z,89.60
2017-11-28T04:52:19.195Z,89.10
2017-11-28T04:54:52.400Z,89.10
2017-11-28T04:57:25.218Z,89.80
2017-11-28T04:59:58.210Z,89.30
2017-11-28T05:02:31.006Z,89.50
2017-11-28T05:05:03.656Z,89.60
2017-11-28T05:07:36.381Z,89.60
2017-11-28T05:10:08.890Z,89.70
2017-11-28T05:12:42.353Z,90.20
2017-11-28T05:15:15.810Z,90.30
2017-11-28T05:17:49.431Z,89.90
2017-11-28T05:20:22.924Z,90.00
2017-11-28T05:22:59.448Z,89.70
2017-11-28T05:25:32.321Z,89.40
2017-11-28T05:28:05.840Z,90.00
2017-11-28T05:30:39.078Z,89.00
2017-11-28T05:33:12.558Z,90.30
2017-11-28T05:35:46.156Z,90.20
2017-11-28T05:38:18.977Z,90.10
2017-11-28T05:40:51.451Z,89.70
2017-11-28T05:43:23.974Z,90.00
2017-11-28T05:45:57.527Z,90.20
2017-11-28T05:48:30.465Z,90.20
2017-11-28T05:51:02.952Z,89.70
2017-11-28T05:53:38.211Z,90.30
2017-11-28T05:56:11.767Z,90.30
2017-11-28T05:58:45.198Z,90.20
2017-11-28T06:01:17.745Z,90.10
2017-11-28T06:03:51.303Z,90.30
2017-11-28T06:06:23.977Z,89.70
2017-11-28T06:08:58.102Z,90.30
2017-11-28T06:11:32.021Z,90.40
2017-11-28T06:14:05.022Z,90.20
2017-11-28T06:16:38.499Z,90.40
2017-11-28T06:19:12.305Z,90.50
2017-11-28T06:21:45.591Z,90.30
2017-11-28T06:24:18.964Z,90.40
2017-11-28T06:26:51.627Z,90.20
2017-11-28T06:29:24.049Z,89.90
2017-11-28T06:31:57.351Z,90.10
2017-11-28T06:34:30.167Z,90.30
2017-11-28T06:37:03.321Z,90.00
2017-11-28T06:39:37.001Z,89.50
2017-11-28T06:42:13.514Z,89.20
2017-11-28T06:44:47.023Z,89.90
2017-11-28T06:47:20.530Z,90.00
2017-11-28T06:49:54.198Z,90.00
2017-11-28T06:52:27.039Z,89.40
2017-11-28T06:54:59.743Z,89.80
2017-11-28T06:57:32.370Z,89.40
2017-11-28T07:00:05.255Z,90.00
2017-11-28T07:02:40.768Z,89.90
2017-11-28T07:05:14.202Z,89.40
2017-11-28T07:07:47.676Z,89.60
2017-11-28T07:10:20.424Z,89.50
2017-11-28T07:12:52.907Z,89.90
2017-11-28T07:15:26.900Z,90.00
2017-11-28T07:18:00.010Z,89.70
2017-11-28T07:20:32.409Z,88.90
2017-11-28T07:23:05.590Z,89.70
2017-11-28T07:25:38.153Z,89.80
2017-11-28T07:28:10.748Z,88.80
2017-11-28T07:30:43.210Z,88.40
2017-11-28T07:33:15.667Z,89.10
2017-11-28T07:35:49.229Z,89.60
2017-11-28T07:38:22.680Z,89.40
2017-11-28T07:40:55.541Z,88.70
2017-11-28T07:43:28.390Z,88.80
2017-11-28T07:46:01.043Z,88.50
2017-11-28T07:48:33.554Z,88.80
2017-11-28T07:51:06.293Z,89.10
2017-11-28T07:53:39.503Z,89.10
2017-11-28T07:56:12.985Z,89.30
2017-11-28T07:58:45.759Z,88.90
2017-11-28T08:01:18.230Z,88.50
2017-11-28T08:03:50.645Z,88.30
2017-11-28T08:06:23.993Z,89.50
2017-11-28T08:08:56.761Z,89.20
2017-11-28T08:11:30.366Z,90.00
2017-11-28T08:14:03.545Z,89.70
2017-11-28T08:16:36.390Z,89.00
2017-11-28T08:19:09.049Z,89.60
2017-11-28T08:21:41.774Z,89.50
2017-11-28T08:24:14.717Z,89.70
2017-11-28T08:26:47.618Z,89.60
2017-11-28T08:29:20.072Z,90.00
2017-11-28T08:31:53.488Z,90.00
2017-11-28T08:34:26.304Z,89.40
2017-11-28T08:37:00.777Z,90.30
2017-11-28T08:39:33.973Z,90.00
2017-11-28T08:42:06.826Z,90.00
2017-11-28T08:44:39.403Z,89.80
2017-11-28T08:47:12.029Z,90.00
2017-11-28T08:49:45.218Z,90.60
2017-11-28T08:52:18.476Z,90.30
2017-11-28T08:54:52.509Z,90.20
2017-11-28T08:57:25.511Z,90.00
2017-11-28T08:59:58.489Z,90.20
2017-11-28T09:02:31.334Z,90.00
2017-11-28T09:05:04.871Z,89.30
2017-11-28T09:07:39.316Z,89.60
2017-11-28T09:10:13.637Z,89.70
2017-11-28T09:12:47.390Z,90.00
2017-11-28T09:15:20.598Z,88.60
2017-11-28T09:17:57.848Z,88.40
2017-11-28T09:20:30.286Z,88.40
2017-11-28T09:23:02.832Z,87.50
2017-11-28T09:25:36.172Z,87.60
2017-11-28T09:28:09.422Z,87.60
2017-11-28T09:30:41.914Z,87.00
2017-11-28T09:33:14.501Z,87.10
2017-11-28T09:35:47.686Z,86.60
2017-11-28T09:38:21.853Z,86.40
2017-11-28T09:40:54.406Z,85.60
2017-11-28T09:43:28.539Z,86.40
2017-11-28T09:46:01.201Z,85.30
2017-11-28T09:48:33.598Z,83.80
2017-11-28T09:51:06.975Z,82.50
2017-11-28T09:53:40.218Z,83.20
2017-11-28T09:56:12.915Z,81.90
2017-11-28T09:58:45.675Z,82.60
2017-11-28T10:01:19.732Z,83.30
2017-11-28T10:03:53.116Z,83.20
2017-11-28T10:06:25.788Z,83.70
2017-11-28T10:08:58.608Z,83.80
2017-11-28T10:11:32.022Z,82.40
2017-11-28T10:14:04.679Z,81.50
2017-11-28T10:16:37.109Z,81.60
2017-11-28T10:19:09.632Z,80.50
2017-11-28T10:21:42.767Z,80.30
2017-11-28T10:24:15.592Z,79.40
2017-11-28T10:26:48.043Z,69.50
2017-11-28T10:29:20.484Z,57.50
2017-11-28T10:31:53.970Z,47.90
2017-11-28T10:34:27.537Z,43.70
2017-11-28T10:37:01.052Z,42.40
2017-11-28T10:39:33.632Z,42.40
2017-11-28T10:42:06.841Z,39.10
2017-11-28T10:44:39.666Z,39.10
2017-11-28T10:47:14.711Z,40.70
2017-11-28T10:49:57.951Z,41.20
2017-11-28T10:52:40.442Z,41.10
2017-11-28T10:55:23.313Z,40.70
2017-11-28T10:58:05.564Z,40.80
2017-11-28T11:00:48.358Z,40.30
2017-11-28T11:03:30.095Z,40.90
2017-11-28T11:06:12.811Z,42.30
2017-11-28T11:08:55.259Z,45.60
2017-11-28T11:11:38.973Z,44.40
2017-11-28T11:14:22.528Z,47.50
2017-11-28T11:17:07.084Z,48.10
2017-11-28T11:19:50.488Z,51.50
2017-11-28T11:22:29.665Z,54.70
2017-11-28T11:25:08.929Z,53.80
2017-11-28T11:27:50.582Z,53.70
2017-11-28T11:30:28.016Z,51.30
2017-11-28T11:33:05.162Z,50.50
2017-11-28T11:35:42.083Z,50.00
2017-11-28T11:38:19.078Z,49.20
2017-11-28T11:40:57.705Z,52.70
2017-11-28T11:43:34.823Z,53.00
2017-11-28T11:46:10.202Z,53.70
2017-11-28T11:48:52.204Z,50.30
2017-11-28T11:51:32.156Z,49.40
2017-11-28T11:54:13.731Z,49.80
2017-11-28T11:56:51.120Z,48.90
2017-11-28T11:59:29.987Z,50.60
2017-11-28T12:02:06.678Z,53.00
2017-11-28T12:04:45.522Z,56.60
2017-11-28T12:07:20.037Z,58.00
2017-11-28T12:09:57.416Z,58.70
2017-11-28T12:12:34.747Z,62.50
2017-11-28T12:15:11.569Z,62.30
2017-11-28T12:17:47.499Z,62.00
2017-11-28T12:20:25.082Z,63.10
2017-11-28T12:22:58.020Z,62.10
2017-11-28T12:25:30.501Z,61.60
2017-11-28T12:28:03.741Z,62.20
2017-11-28T12:30:37.025Z,62.00
2017-11-28T12:33:10.332Z,60.30
2017-11-28T12:35:44.426Z,62.00
2017-11-28T12:38:17.236Z,60.90
2017-11-28T12:40:50.374Z,61.90
2017-11-28T12:43:22.989Z,61.10
2017-11-28T12:45:56.221Z,61.60
2017-11-28T12:48:29.000Z,62.80
2017-11-28T12:51:01.496Z,63.60
2017-11-28T12:53:35.620Z,63.90
2017-11-28T12:56:09.024Z,64.00
2017-11-28T12:58:42.118Z,63.40
2017-11-28T13:01:15.915Z,64.00
2017-11-28T13:03:49.721Z,64.00
2017-11-28T13:06:22.162Z,63.50
2017-11-28T13:08:54.633Z,63.00
2017-11-28T13:11:27.866Z,62.90
2017-11-28T13:14:01.544Z,63.50
2017-11-28T13:16:34.250Z,62.50
2017-11-28T13:19:06.857Z,61.60
2017-11-28T13:21:40.061Z,62.50
2017-11-28T13:24:13.664Z,62.30
2017-11-28T13:26:46.345Z,61.50
2017-11-28T13:29:19.674Z,61.30
2017-11-28T13:31:52.970Z,63.20
2017-11-28T13:34:26.531Z,62.60
2017-11-28T13:37:00.028Z,64.80
2017-11-28T13:39:32.596Z,64.20
2017-11-28T13:42:06.015Z,65.40
2017-11-28T13:44:39.378Z,65.60
2017-11-28T13:47:12.315Z,64.90
2017-11-28T13:49:45.929Z,65.10
2017-11-28T13:52:20.117Z,65.30
2017-11-28T13:54:53.780Z,65.80
2017-11-28T13:57:26.459Z,65.10
2017-11-28T13:59:59.795Z,65.90
2017-11-28T14:02:32.224Z,66.80
2017-11-28T14:05:04.661Z,67.20
2017-11-28T14:07:37.000Z,67.40
2017-11-28T14:10:09.362Z,67.80
2017-11-28T14:12:41.842Z,67.40
2017-11-28T14:15:15.948Z,68.30
2017-11-28T14:17:49.357Z,68.80
2017-11-28T14:20:32.819Z,68.20
2017-11-28T14:23:11.539Z,68.40
2017-11-28T14:25:45.920Z,68.50
2017-11-28T14:28:22.049Z,68.30
2017-11-28T14:31:01.624Z,68.90
2017-11-28T14:33:36.164Z,69.20
2017-11-28T14:36:11.432Z,68.90
2017-11-28T14:38:47.285Z,67.20
2017-11-28T14:41:32.090Z,66.80
2017-11-28T14:44:11.788Z,67.90
2017-11-28T14:46:46.809Z,67.40
2017-11-28T14:49:22.027Z,67.00
2017-11-28T14:52:04.552Z,69.10
2017-11-28T14:54:47.107Z,68.90
2017-11-28T14:57:31.402Z,69.10
2017-11-28T15:00:19.370Z,69.00
2017-11-28T15:03:01.610Z,69.20
2017-11-28T15:05:41.236Z,69.50
2017-11-28T15:08:20.658Z,70.10
2017-11-28T15:10:59.241Z,70.90
2017-11-28T15:13:38.685Z,70.40
2017-11-28T15:16:18.331Z,71.50
2017-11-28T15:18:52.054Z,71.20
2017-11-28T15:21:27.080Z,70.80
2017-11-28T15:24:04.447Z,70.20
2017-11-28T15:26:40.189Z,70.30
2017-11-28T15:29:16.535Z,69.60
2017-11-28T15:31:50.325Z,72.70
2017-11-28T15:34:23.374Z,72.10
2017-11-28T15:36:56.169Z,73.10
2017-11-28T15:39:30.490Z,74.40
2017-11-28T15:42:03.066Z,73.80
2017-11-28T15:44:35.626Z,74.20
2017-11-28T15:47:08.951Z,75.10
2017-11-28T15:49:41.665Z,74.90
2017-11-28T15:52:15.040Z,75.90
2017-11-28T15:54:47.637Z,76.20
2017-11-28T15:57:20.023Z,75.20
2017-11-28T15:59:52.735Z,75.70
2017-11-28T16:02:26.045Z,76.40
2017-11-28T16:05:00.150Z,76.20
2017-11-28T16:07:33.627Z,77.20
2017-11-28T16:10:06.327Z,76.70
2017-11-28T16:12:39.722Z,76.30
2017-11-28T16:15:13.493Z,77.10
2017-11-28T16:17:46.274Z,77.30
2017-11-28T16:20:19.702Z,78.20
2017-11-28T16:22:52.550Z,78.20
2017-11-28T16:25:25.859Z,77.20
2017-11-28T16:27:59.100Z,76.40
2017-11-28T16:30:32.387Z,77.50
2017-11-28T16:33:05.805Z,78.10
2017-11-28T16:35:38.552Z,77.20
2017-11-28T16:38:11.036Z,78.10
2017-11-28T16:40:44.410Z,78.20
2017-11-28T16:43:17.477Z,78.10
2017-11-28T16:45:49.937Z,78.60
2017-11-28T16:48:22.605Z,78.50
2017-11-28T16:50:56.005Z,78.50
2017-11-28T16:53:28.496Z,79.20
2017-11-28T16:56:01.576Z,79.00
2017-11-28T16:58:35.191Z,79.70
2017-11-28T17:01:08.233Z,78.90
2017-11-28T17:03:40.861Z,80.00
2017-11-28T17:06:14.278Z,80.30
2017-11-28T17:08:47.576Z,80.80
2017-11-28T17:11:21.058Z,80.70
2017-11-28T17:13:53.986Z,80.50
2017-11-28T17:16:26.462Z,80.50
2017-11-28T17:19:00.626Z,80.60
2017-11-28T17:21:33.186Z,81.00
2017-11-28T17:24:05.590Z,81.60
2017-11-28T17:26:38.092Z,81.60
2017-11-28T17:29:10.759Z,81.00
2017-11-28T17:31:44.144Z,81.90
2017-11-28T17:34:16.817Z,81.80
2017-11-28T17:36:50.060Z,81.00
2017-11-28T17:39:23.640Z,81.60
2017-11-28T17:41:56.538Z,81.60
2017-11-28T17:44:29.008Z,81.70
2017-11-28T17:47:03.977Z,81.70
2017-11-28T17:49:38.602Z,81.70
2017-11-28T17:52:12.903Z,82.00
2017-11-28T17:54:49.713Z,81.50
2017-11-28T17:57:25.026Z,81.40
2017-11-28T17:59:59.856Z,82.30
2017-11-28T18:02:34.370Z,82.80
2017-11-28T18:05:08.042Z,81.50
2017-11-28T18:07:45.247Z,82.30
2017-11-28T18:10:20.080Z,82.50
2017-11-28T18:12:58.768Z,83.20
2017-11-28T18:15:34.565Z,83.70
2017-11-28T18:18:08.783Z,83.90
2017-11-28T18:20:43.185Z,84.00
2017-11-28T18:23:19.499Z,83.80
2017-11-28T18:25:56.312Z,83.80
2017-11-28T18:28:32.334Z,83.10
2017-11-28T18:31:06.386Z,83.80
2017-11-28T18:33:43.345Z,83.90
2017-11-28T18:36:16.808Z,83.40
2017-11-28T18:38:50.894Z,83.60
2017-11-28T18:41:23.441Z,83.20
2017-11-28T18:43:55.959Z,83.90
2017-11-28T18:46:29.336Z,83.60
2017-11-28T18:49:03.904Z,83.40
2017-11-28T18:51:36.429Z,83.20
2017-11-28T18:54:09.195Z,84.50
2017-11-28T18:56:42.175Z,84.60
2017-11-28T18:59:15.506Z,84.80
2017-11-28T19:01:48.474Z,84.20
2017-11-28T19:04:21.727Z,84.70
2017-11-28T19:06:54.523Z,84.70
2017-11-28T19:09:27.804Z,84.40
2017-11-28T19:14:47.202Z,84.80
2017-11-28T19:17:20.324Z,84.10
2017-11-28T19:19:53.291Z,84.90
2017-11-28T19:22:26.921Z,84.80
2017-11-28T19:24:59.760Z,85.00
2017-11-28T19:27:33.096Z,85.80
2017-11-28T19:30:05.790Z,85.50
2017-11-28T19:32:39.837Z,85.90
2017-11-28T19:35:13.109Z,85.60
2017-11-28T19:37:46.784Z,86.10
2017-11-28T19:40:19.880Z,85.40
2017-11-28T19:42:52.473Z,85.80
2017-11-28T19:45:25.705Z,85.80
2017-11-28T19:47:58.645Z,85.70
2017-11-28T19:50:32.112Z,85.50
2017-11-28T19:53:05.731Z,86.10
2017-11-28T19:55:38.539Z,86.30
2017-11-28T19:58:11.347Z,86.90
2017-11-28T20:00:44.676Z,87.50
2017-11-28T20:03:18.027Z,86.60
2017-11-28T20:05:51.405Z,87.30
2017-11-28T20:08:24.895Z,86.50
2017-11-28T20:10:57.821Z,85.80
2017-11-28T20:13:31.014Z,86.80
2017-11-28T20:16:03.894Z,86.90
2017-11-28T20:18:36.485Z,85.60
2017-11-28T20:21:09.683Z,86.90
2017-11-28T20:23:43.252Z,86.20
2017-11-28T20:26:16.097Z,85.70
2017-11-28T20:28:48.788Z,86.00
2017-11-28T20:31:22.598Z,86.10
2017-11-28T20:33:55.713Z,86.10
2017-11-28T20:36:29.398Z,86.10
2017-11-28T20:39:02.497Z,85.60
2017-11-28T20:41:34.974Z,85.30
2017-11-28T20:44:07.496Z,85.00
2017-11-28T20:46:41.886Z,84.50
2017-11-28T20:49:21.851Z,84.70
2017-11-28T20:51:56.500Z,84.90
2017-11-28T20:54:29.583Z,84.90
2017-11-28T20:57:02.660Z,85.40
2017-11-28T20:59:37.800Z,85.90
2017-11-28T21:02:11.270Z,85.20
2017-11-28T21:04:45.006Z,86.00
2017-11-28T21:07:19.379Z,85.80
2017-11-28T21:09:53.705Z,85.60
2017-11-28T21:12:28.031Z,85.40
2017-11-28T21:15:01.987Z,85.40
2017-11-28T21:17:35.037Z,85.20
2017-11-28T21:20:08.434Z,85.10
2017-11-28T21:22:41.797Z,85.30
2017-11-28T21:25:15.749Z,85.90
2017-11-28T21:27:49.123Z,85.60
2017-11-28T21:30:22.643Z,85.80
2017-11-28T21:32:55.563Z,84.50
2017-11-28T21:35:28.854Z,84.90
2017-11-28T21:38:02.004Z,84.80
2017-11-28T21:40:35.297Z,83.40
2017-11-28T21:43:08.826Z,83.60
2017-11-28T21:45:41.549Z,83.30
2017-11-28T21:48:14.746Z,83.80
2017-11-28T21:50:48.084Z,84.30
2017-11-28T21:53:20.715Z,85.40
2017-11-28T21:55:53.501Z,85.10
2017-11-28T21:58:26.753Z,85.50
2017-11-28T22:00:59.492Z,85.80
2017-11-28T22:03:32.794Z,86.40
2017-11-28T22:06:06.182Z,86.70
2017-11-28T22:08:45.036Z,86.10
2017-11-28T22:11:18.226Z,85.40
2017-11-28T22:14:00.927Z,85.20
2017-11-28T22:16:33.493Z,86.40
2017-11-28T22:19:06.023Z,85.70
2017-11-28T22:21:39.290Z,85.90
2017-11-28T22:24:11.962Z,84.80
2017-11-28T22:26:47.338Z,85.10
2017-11-28T22:29:20.894Z,85.30
2017-11-28T22:31:55.418Z,85.70
2017-11-28T22:34:28.890Z,84.60
2017-11-28T22:37:02.724Z,84.80
2017-11-28T22:39:35.831Z,84.50
2017-11-28T22:42:08.946Z,84.30
2017-11-28T22:44:41.413Z,84.80
2017-11-28T22:47:14.553Z,85.00
2017-11-28T22:49:47.981Z,85.40
2017-11-28T22:52:21.683Z,85.30
2017-11-28T22:54:55.132Z,85.90
2017-11-28T22:57:29.299Z,85.80
2017-11-28T23:00:02.759Z,86.00
2017-11-28T23:02:39.245Z,86.50
2017-11-28T23:05:12.499Z,86.20
2017-11-28T23:07:45.221Z,86.10
2017-11-28T23:10:17.823Z,85.70
2017-11-28T23:12:50.835Z,86.20
2017-11-28T23:15:24.233Z,86.70
2017-11-28T23:17:57.223Z,86.40
2017-11-28T23:20:29.800Z,85.80
2017-11-28T23:23:02.726Z,86.00
2017-11-28T23:25:35.394Z,85.80
2017-11-28T23:28:07.859Z,85.40
2017-11-28T23:30:40.288Z,85.80
2017-11-28T23:33:14.010Z,86.10
2017-11-28T23:35:48.836Z,85.80
2017-11-28T23:38:21.562Z,85.60
2017-11-28T23:41:18.384Z,86.30
2017-11-28T23:43:51.241Z,85.10
2017-11-28T23:46:28.663Z,85.40
2017-11-28T23:49:02.053Z,85.90
2017-11-28T23:51:34.914Z,86.30
2017-11-28T23:54:07.985Z,85.20
2017-11-28T23:56:40.546Z,85.50
2017-11-28T23:59:12.958Z,86.00
